createdAt,value
2024-04-30T00:02:16.517Z,10.55
2024-04-30T00:04:43.517Z,10.48
2024-04-30T00:07:10.637Z,10.41
2024-04-30T00:09:40.415Z,10.35
2024-04-30T00:12:07.921Z,10.29
2024-04-30T00:14:34.866Z,10.23
2024-04-30T00:17:01.741Z,10.19
2024-04-30T00:19:28.782Z,10.14
2024-04-30T00:21:55.771Z,10.07
2024-04-30T00:24:22.683Z,9.99
2024-04-30T00:26:49.536Z,9.93
2024-04-30T00:29:16.404Z,9.91
2024-04-30T00:31:43.295Z,9.84
2024-04-30T00:34:10.239Z,9.84
2024-04-30T00:36:40.421Z,9.82
2024-04-30T00:39:09.386Z,9.73
2024-04-30T00:41:36.282Z,9.72
2024-04-30T00:44:03.431Z,9.69
2024-04-30T00:46:30.596Z,9.69
2024-04-30T00:48:59.298Z,9.70
2024-04-30T00:51:26.293Z,9.75
2024-04-30T00:53:53.379Z,9.76
2024-04-30T00:56:21.091Z,9.72
2024-04-30T00:58:48.118Z,9.70
2024-04-30T01:01:15.335Z,9.69
2024-04-30T01:03:42.321Z,9.66
2024-04-30T01:06:09.288Z,9.60
2024-04-30T01:08:36.176Z,9.58
2024-04-30T01:11:03.236Z,9.63
2024-04-30T01:13:36.232Z,9.63
2024-04-30T01:16:04.142Z,9.62
2024-04-30T01:18:31.098Z,9.61
2024-04-30T01:20:57.967Z,9.60
2024-04-30T01:23:24.934Z,9.58
2024-04-30T01:25:51.823Z,9.52
2024-04-30T01:28:18.763Z,9.50
2024-04-30T01:30:45.948Z,9.49
2024-04-30T01:33:13.893Z,9.45
2024-04-30T01:35:41.068Z,9.40
2024-04-30T01:38:08.041Z,9.36
2024-04-30T01:40:35.187Z,9.32
2024-04-30T01:43:02.168Z,9.29
2024-04-30T01:45:29.207Z,9.29
2024-04-30T01:47:56.243Z,9.30
2024-04-30T01:50:23.194Z,9.29
2024-04-30T01:52:50.070Z,9.26
2024-04-30T01:55:17.111Z,9.25
2024-04-30T01:57:45.326Z,9.22
2024-04-30T02:00:12.848Z,9.26
2024-04-30T02:02:39.775Z,9.28
2024-04-30T02:05:13.386Z,9.28
2024-04-30T02:07:43.819Z,9.24
2024-04-30T02:10:10.841Z,9.26
2024-04-30T02:12:37.776Z,9.25
2024-04-30T02:15:05.261Z,9.21
2024-04-30T02:17:32.776Z,9.19
2024-04-30T02:20:00.594Z,9.19
2024-04-30T02:22:27.538Z,9.18
2024-04-30T02:24:54.459Z,9.16
2024-04-30T02:27:21.299Z,9.16
2024-04-30T02:29:48.570Z,9.16
2024-04-30T02:32:34.002Z,9.17
2024-04-30T02:35:01.091Z,9.19
2024-04-30T02:37:28.319Z,9.20
2024-04-30T02:39:55.228Z,9.24
2024-04-30T02:42:22.089Z,9.25
2024-04-30T02:44:48.982Z,9.23
2024-04-30T02:47:15.892Z,9.19
2024-04-30T02:49:42.846Z,9.24
2024-04-30T02:52:09.834Z,9.30
2024-04-30T02:54:36.751Z,9.23
2024-04-30T02:57:03.698Z,9.08
2024-04-30T02:59:30.594Z,8.90
2024-04-30T03:01:57.489Z,8.72
2024-04-30T03:04:24.746Z,8.56
2024-04-30T03:06:51.702Z,8.44
2024-04-30T03:09:18.642Z,8.34
2024-04-30T03:11:45.776Z,8.33
2024-04-30T03:14:13.582Z,8.33
2024-04-30T03:16:44.287Z,8.34
2024-04-30T03:19:11.313Z,8.32
2024-04-30T03:21:38.216Z,8.34
2024-04-30T03:24:05.309Z,8.29
2024-04-30T03:26:32.213Z,8.28
2024-04-30T03:28:59.055Z,8.27
2024-04-30T03:31:25.974Z,8.18
2024-04-30T03:33:52.842Z,8.10
2024-04-30T03:36:19.960Z,8.07
2024-04-30T03:38:46.965Z,8.07
2024-04-30T03:41:17.570Z,8.08
2024-04-30T03:43:44.676Z,8.09
2024-04-30T03:46:15.707Z,8.07
2024-04-30T03:48:43.165Z,8.06
2024-04-30T03:51:10.200Z,8.06
2024-04-30T03:53:37.075Z,8.08
2024-04-30T03:56:04.962Z,8.09
2024-04-30T03:58:32.047Z,8.10
2024-04-30T04:00:59.157Z,8.25
2024-04-30T04:03:26.168Z,8.24
2024-04-30T04:05:53.062Z,8.19
2024-04-30T04:08:19.987Z,8.18
2024-04-30T04:11:06.802Z,8.16
2024-04-30T04:13:52.220Z,8.19
2024-04-30T04:16:19.151Z,8.19
2024-04-30T04:18:46.238Z,8.23
2024-04-30T04:21:17.702Z,8.23
2024-04-30T04:23:46.597Z,8.25
2024-04-30T04:26:13.494Z,8.30
2024-04-30T04:28:40.464Z,8.36
2024-04-30T04:31:07.853Z,8.45
2024-04-30T04:33:34.711Z,8.54
2024-04-30T04:36:01.736Z,8.60
2024-04-30T04:38:28.631Z,8.71
2024-04-30T04:40:55.527Z,8.82
2024-04-30T04:43:22.479Z,8.91
2024-04-30T04:45:49.362Z,9.03
2024-04-30T04:48:16.403Z,9.14
2024-04-30T04:50:43.295Z,9.29
2024-04-30T04:53:10.402Z,9.39
2024-04-30T04:55:37.343Z,9.58
2024-04-30T04:58:04.674Z,9.72
2024-04-30T05:00:31.586Z,9.85
2024-04-30T05:02:58.497Z,10.00
2024-04-30T05:05:25.363Z,10.16
2024-04-30T05:07:52.237Z,10.25
2024-04-30T05:10:19.397Z,10.42
2024-04-30T05:12:46.437Z,10.61
2024-04-30T05:15:13.426Z,10.81
2024-04-30T05:17:40.416Z,11.00
2024-04-30T05:20:07.549Z,11.13
2024-04-30T05:22:34.558Z,11.34
2024-04-30T05:25:01.709Z,11.48
2024-04-30T05:27:28.712Z,11.71
2024-04-30T05:29:58.008Z,12.00
2024-04-30T05:32:29.687Z,12.15
2024-04-30T05:34:59.810Z,12.24
2024-04-30T05:37:27.406Z,12.60
2024-04-30T05:39:54.363Z,13.19
2024-04-30T05:42:21.261Z,13.74
2024-04-30T05:44:48.182Z,14.24
2024-04-30T05:47:15.059Z,14.64
2024-04-30T05:49:41.992Z,15.09
2024-04-30T05:52:08.877Z,15.08
2024-04-30T05:54:35.771Z,15.33
2024-04-30T05:57:02.617Z,15.63
2024-04-30T05:59:30.089Z,16.16
2024-04-30T06:01:57.053Z,16.15
2024-04-30T06:04:24.035Z,16.66
2024-04-30T06:06:50.987Z,16.67
2024-04-30T06:09:17.895Z,16.56
2024-04-30T06:11:44.789Z,16.69
2024-04-30T06:14:11.684Z,16.83
2024-04-30T06:16:38.858Z,16.16
2024-04-30T06:19:05.999Z,15.55
2024-04-30T06:21:37.914Z,16.27
2024-04-30T06:24:06.833Z,16.07
2024-04-30T06:26:33.744Z,15.87
2024-04-30T06:29:00.626Z,16.74
2024-04-30T06:31:27.572Z,16.58
2024-04-30T06:33:54.576Z,16.98
2024-04-30T06:36:21.515Z,17.10
2024-04-30T06:38:48.770Z,17.76
2024-04-30T06:41:15.881Z,17.52
2024-04-30T06:43:42.972Z,17.56
2024-04-30T06:46:10.133Z,17.05
2024-04-30T06:48:37.547Z,17.51
2024-04-30T06:51:04.893Z,17.55
2024-04-30T06:53:31.754Z,18.46
2024-04-30T06:55:58.625Z,18.59
2024-04-30T06:58:25.557Z,18.76
2024-04-30T07:00:52.574Z,18.40
2024-04-30T07:03:19.439Z,19.35
2024-04-30T07:05:46.385Z,18.75
2024-04-30T07:08:16.356Z,18.90
2024-04-30T07:10:43.294Z,19.00
2024-04-30T07:13:10.265Z,19.61
2024-04-30T07:15:37.256Z,20.05
2024-04-30T07:18:04.925Z,20.24
2024-04-30T07:20:31.922Z,19.79
2024-04-30T07:22:58.764Z,19.95
2024-04-30T07:25:25.742Z,20.20
2024-04-30T07:27:52.684Z,20.15
2024-04-30T07:30:19.547Z,20.58
2024-04-30T07:32:46.780Z,20.29
2024-04-30T07:35:13.769Z,20.28
2024-04-30T07:37:40.854Z,19.45
2024-04-30T07:40:08.887Z,19.00
2024-04-30T07:42:35.867Z,18.52
2024-04-30T07:45:02.734Z,19.50
2024-04-30T07:47:29.634Z,19.71
2024-04-30T07:49:56.634Z,19.18
2024-04-30T07:52:23.643Z,19.43
2024-04-30T07:54:50.540Z,19.62
2024-04-30T07:57:17.451Z,19.07
2024-04-30T07:59:44.372Z,19.63
2024-04-30T08:02:14.376Z,20.60
2024-04-30T08:04:41.962Z,20.87
2024-04-30T08:07:08.949Z,20.61
2024-04-30T08:09:36.515Z,20.19
2024-04-30T08:12:03.704Z,20.74
2024-04-30T08:14:33.815Z,20.60
2024-04-30T08:17:02.713Z,19.78
2024-04-30T08:19:29.796Z,19.58
2024-04-30T08:21:56.715Z,19.90
2024-04-30T08:24:23.572Z,19.55
2024-04-30T08:26:50.423Z,19.36
2024-04-30T08:29:17.328Z,19.79
2024-04-30T08:32:05.693Z,19.91
2024-04-30T08:34:32.632Z,19.71
2024-04-30T08:36:59.794Z,19.66
2024-04-30T08:39:26.799Z,19.90
2024-04-30T08:41:56.546Z,20.31
2024-04-30T08:44:25.892Z,20.35
2024-04-30T08:46:54.736Z,20.12
2024-04-30T08:49:33.508Z,20.34
2024-04-30T08:52:09.482Z,20.03
2024-04-30T08:54:41.067Z,19.96
2024-04-30T08:57:08.006Z,19.76
2024-04-30T08:59:35.025Z,19.47
2024-04-30T09:02:04.172Z,19.37
2024-04-30T09:04:31.784Z,19.41
2024-04-30T09:06:58.751Z,19.86
2024-04-30T09:09:25.607Z,19.84
2024-04-30T09:11:53.418Z,19.40
2024-04-30T09:14:20.611Z,19.48
2024-04-30T09:16:50.590Z,19.91
2024-04-30T09:19:25.979Z,20.04
2024-04-30T09:22:04.420Z,20.38
2024-04-30T09:24:31.460Z,20.38
2024-04-30T09:26:58.377Z,20.54
2024-04-30T09:29:39.361Z,20.15
2024-04-30T09:32:07.862Z,19.47
2024-04-30T09:34:45.977Z,19.32
2024-04-30T09:37:21.305Z,19.28
2024-04-30T09:39:50.164Z,19.62
2024-04-30T09:42:17.572Z,19.98
2024-04-30T09:44:44.859Z,19.62
2024-04-30T09:47:14.782Z,19.72
2024-04-30T09:49:46.894Z,19.72
2024-04-30T09:52:16.759Z,20.00
2024-04-30T09:54:47.145Z,20.31
2024-04-30T09:57:15.178Z,20.32
2024-04-30T09:59:44.345Z,20.41
2024-04-30T10:02:16.018Z,20.36
2024-04-30T10:04:44.866Z,20.46
2024-04-30T10:07:13.304Z,20.69
2024-04-30T10:09:40.287Z,20.83
2024-04-30T10:12:07.342Z,20.96
2024-04-30T10:14:34.254Z,21.09
2024-04-30T10:17:01.927Z,20.95
2024-04-30T10:19:29.253Z,20.54
2024-04-30T10:21:56.281Z,20.45
2024-04-30T10:24:23.851Z,20.58
2024-04-30T10:26:51.998Z,20.70
2024-04-30T10:29:20.163Z,20.90
2024-04-30T10:31:48.583Z,20.98
2024-04-30T10:34:15.754Z,20.66
2024-04-30T10:36:52.098Z,20.84
2024-04-30T10:39:26.955Z,21.05
2024-04-30T10:41:54.344Z,21.09
2024-04-30T10:44:21.297Z,20.84
2024-04-30T10:46:49.427Z,21.05
2024-04-30T10:49:21.526Z,20.92
2024-04-30T10:51:48.887Z,20.61
2024-04-30T10:54:16.014Z,20.96
2024-04-30T10:56:43.091Z,21.10
2024-04-30T10:59:10.024Z,21.21
2024-04-30T11:01:36.973Z,21.09
2024-04-30T11:04:13.542Z,21.20
2024-04-30T11:06:46.243Z,21.27
2024-04-30T11:09:15.661Z,21.49
2024-04-30T11:11:50.821Z,21.81
2024-04-30T11:14:23.152Z,21.92
2024-04-30T11:16:53.597Z,22.00
2024-04-30T11:19:21.843Z,21.81
2024-04-30T11:21:51.531Z,21.98
2024-04-30T11:24:18.487Z,21.96
2024-04-30T11:26:48.759Z,21.96
2024-04-30T11:29:30.596Z,21.97
2024-04-30T11:32:04.237Z,22.02
2024-04-30T11:34:31.352Z,22.30
2024-04-30T11:36:58.259Z,22.48
2024-04-30T11:39:25.415Z,22.64
2024-04-30T11:42:01.377Z,22.35
2024-04-30T11:44:39.438Z,22.22
2024-04-30T11:47:07.169Z,22.37
2024-04-30T11:49:35.618Z,22.45
2024-04-30T11:52:03.986Z,22.44
2024-04-30T11:54:31.545Z,22.48
2024-04-30T11:56:58.456Z,22.68
2024-04-30T11:59:25.424Z,22.71
2024-04-30T12:01:52.380Z,22.86
2024-04-30T12:04:24.359Z,22.88
2024-04-30T12:06:51.372Z,22.89
2024-04-30T12:09:20.974Z,22.37
2024-04-30T12:11:48.792Z,22.39
2024-04-30T12:14:15.801Z,22.72
2024-04-30T12:16:46.088Z,22.52
2024-04-30T12:19:14.322Z,22.74
2024-04-30T12:21:43.480Z,22.93
2024-04-30T12:24:10.826Z,22.97
2024-04-30T12:26:38.206Z,22.91
2024-04-30T12:29:05.501Z,22.86
2024-04-30T12:31:32.544Z,23.11
2024-04-30T12:33:59.711Z,23.33
2024-04-30T12:36:26.630Z,23.31
2024-04-30T12:38:53.501Z,23.40
2024-04-30T12:41:20.455Z,23.52
2024-04-30T12:43:47.355Z,23.63
2024-04-30T12:46:15.240Z,23.56
2024-04-30T12:48:42.291Z,23.73
2024-04-30T12:51:09.530Z,23.79
2024-04-30T12:53:38.123Z,23.48
2024-04-30T12:56:05.380Z,23.27
2024-04-30T12:58:32.442Z,23.29
2024-04-30T13:00:59.480Z,23.18
2024-04-30T13:03:26.537Z,23.60
2024-04-30T13:05:54.269Z,23.83
2024-04-30T13:08:22.148Z,23.79
2024-04-30T13:10:49.502Z,23.89
2024-04-30T13:13:16.684Z,23.98
2024-04-30T13:15:43.628Z,24.03
2024-04-30T13:18:10.544Z,24.16
2024-04-30T13:20:39.343Z,24.17
2024-04-30T13:23:06.234Z,24.40
2024-04-30T13:25:33.128Z,24.48
2024-04-30T13:28:01.921Z,24.58
2024-04-30T13:30:29.021Z,24.50
2024-04-30T13:32:56.034Z,24.35
2024-04-30T13:35:22.954Z,24.35
2024-04-30T13:37:49.963Z,24.45
2024-04-30T13:40:16.948Z,24.61
2024-04-30T13:42:43.866Z,24.46
2024-04-30T13:45:10.763Z,24.47
2024-04-30T13:47:37.646Z,24.52
2024-04-30T13:50:06.280Z,24.57
2024-04-30T13:52:37.442Z,24.71
2024-04-30T13:55:08.308Z,24.76
2024-04-30T13:57:35.214Z,24.79
2024-04-30T14:00:02.098Z,24.81
2024-04-30T14:02:31.128Z,24.73
2024-04-30T14:04:58.198Z,24.55
2024-04-30T14:07:25.380Z,24.63
2024-04-30T14:09:52.295Z,24.84
2024-04-30T14:12:19.266Z,25.16
2024-04-30T14:14:46.122Z,25.40
2024-04-30T14:17:13.060Z,25.46
2024-04-30T14:19:40.380Z,25.52
2024-04-30T14:22:07.356Z,25.45
2024-04-30T14:24:34.568Z,25.44
2024-04-30T14:27:01.653Z,25.41
2024-04-30T14:29:28.519Z,25.50
2024-04-30T14:31:55.574Z,25.27
2024-04-30T14:34:23.723Z,25.36
2024-04-30T14:36:50.698Z,25.60
2024-04-30T14:39:18.233Z,25.55
2024-04-30T14:41:46.035Z,25.74
2024-04-30T14:44:16.158Z,25.70
2024-04-30T14:46:44.099Z,25.84
2024-04-30T14:49:11.867Z,26.02
2024-04-30T14:51:41.225Z,25.98
2024-04-30T14:54:08.540Z,25.75
2024-04-30T14:56:37.169Z,25.73
2024-04-30T14:59:04.276Z,25.61
2024-04-30T15:01:31.286Z,25.88
2024-04-30T15:03:58.964Z,25.94
2024-04-30T15:06:28.746Z,25.97
2024-04-30T15:08:55.998Z,25.81
2024-04-30T15:11:25.488Z,25.48
2024-04-30T15:13:53.363Z,25.67
2024-04-30T15:16:21.184Z,25.89
2024-04-30T15:18:48.741Z,26.00
2024-04-30T15:21:15.919Z,26.08
2024-04-30T15:23:44.449Z,26.12
2024-04-30T15:26:12.693Z,25.86
2024-04-30T15:28:40.038Z,25.76
2024-04-30T15:31:08.568Z,25.69
2024-04-30T15:33:39.442Z,25.71
2024-04-30T15:36:07.120Z,25.39
2024-04-30T15:38:35.039Z,25.65
2024-04-30T15:41:02.336Z,25.89
2024-04-30T15:43:31.523Z,25.71
2024-04-30T15:45:58.652Z,25.87
2024-04-30T15:48:25.835Z,25.47
2024-04-30T15:50:52.989Z,25.26
2024-04-30T15:53:22.776Z,25.03
2024-04-30T15:56:04.961Z,25.38
2024-04-30T15:58:36.767Z,25.46
2024-04-30T16:01:04.373Z,25.35
2024-04-30T16:03:31.459Z,25.20
2024-04-30T16:05:58.399Z,25.01
2024-04-30T16:08:25.323Z,24.95
2024-04-30T16:10:52.314Z,24.88
2024-04-30T16:13:19.915Z,24.57
2024-04-30T16:15:50.150Z,24.20
2024-04-30T16:18:19.666Z,24.13
2024-04-30T16:20:46.870Z,24.21
2024-04-30T16:23:13.744Z,24.33
2024-04-30T16:25:43.237Z,24.21
2024-04-30T16:28:11.930Z,24.04
2024-04-30T16:30:38.899Z,23.99
2024-04-30T16:33:06.096Z,23.92
2024-04-30T16:35:33.002Z,23.80
2024-04-30T16:38:00.444Z,23.76
2024-04-30T16:40:27.291Z,23.69
2024-04-30T16:42:54.364Z,23.63
2024-04-30T16:45:21.466Z,23.40
2024-04-30T16:47:48.424Z,23.39
2024-04-30T16:50:15.338Z,23.36
2024-04-30T16:52:42.206Z,23.16
2024-04-30T16:55:09.091Z,23.03
2024-04-30T16:57:38.842Z,22.95
2024-04-30T17:00:11.649Z,22.93
2024-04-30T17:02:38.647Z,22.75
2024-04-30T17:05:06.872Z,22.72
2024-04-30T17:07:37.081Z,22.62
2024-04-30T17:10:04.742Z,22.65
2024-04-30T17:12:32.154Z,22.62
2024-04-30T17:14:59.054Z,22.67
2024-04-30T17:17:26.031Z,22.61
2024-04-30T17:19:52.929Z,22.52
2024-04-30T17:22:19.825Z,22.49
2024-04-30T17:24:48.826Z,22.48
2024-04-30T17:27:15.854Z,22.37
2024-04-30T17:29:42.960Z,22.29
2024-04-30T17:32:09.933Z,22.14
2024-04-30T17:34:36.988Z,22.07
2024-04-30T17:37:04.702Z,21.97
2024-04-30T17:39:31.736Z,21.84
2024-04-30T17:41:58.648Z,21.71
2024-04-30T17:44:25.514Z,21.65
2024-04-30T17:46:52.408Z,21.52
2024-04-30T17:49:19.322Z,21.45
2024-04-30T17:51:47.391Z,21.29
2024-04-30T17:54:16.126Z,21.18
2024-04-30T17:56:44.418Z,21.05
2024-04-30T17:59:11.528Z,20.87
2024-04-30T18:01:43.224Z,20.72
2024-04-30T18:04:10.191Z,20.53
2024-04-30T18:06:37.250Z,20.31
2024-04-30T18:09:07.294Z,20.10
2024-04-30T18:11:34.497Z,19.91
2024-04-30T18:14:03.127Z,19.77
2024-04-30T18:16:32.005Z,19.58
2024-04-30T18:18:58.966Z,19.69
2024-04-30T18:21:33.918Z,19.59
2024-04-30T18:24:03.605Z,19.62
2024-04-30T18:26:30.708Z,19.51
2024-04-30T18:28:59.249Z,19.46
2024-04-30T18:31:29.410Z,19.29
2024-04-30T18:33:56.607Z,19.23
2024-04-30T18:36:26.278Z,19.19
2024-04-30T18:38:54.145Z,19.10
2024-04-30T18:41:28.111Z,19.08
2024-04-30T18:43:58.898Z,19.05
2024-04-30T18:46:25.901Z,19.18
2024-04-30T18:48:53.112Z,19.45
2024-04-30T18:51:20.533Z,19.64
2024-04-30T18:53:47.572Z,19.77
2024-04-30T18:56:17.290Z,19.58
2024-04-30T18:58:46.277Z,19.37
2024-04-30T19:01:14.261Z,19.23
2024-04-30T19:03:42.246Z,19.10
2024-04-30T19:06:11.283Z,19.04
2024-04-30T19:08:38.909Z,18.98
2024-04-30T19:11:08.250Z,18.93
2024-04-30T19:13:35.502Z,18.91
2024-04-30T19:16:04.033Z,18.92
2024-04-30T19:18:32.522Z,18.95
2024-04-30T19:21:02.421Z,18.93
2024-04-30T19:23:33.809Z,18.93
2024-04-30T19:26:01.959Z,18.89
2024-04-30T19:28:29.206Z,18.81
2024-04-30T19:30:56.623Z,18.68
2024-04-30T19:33:23.821Z,18.60
2024-04-30T19:35:50.817Z,18.48
2024-04-30T19:38:18.171Z,18.43
2024-04-30T19:40:45.657Z,18.37
2024-04-30T19:43:14.023Z,18.33
2024-04-30T19:45:41.951Z,18.27
2024-04-30T19:48:11.429Z,18.36
2024-04-30T19:50:39.932Z,18.32
2024-04-30T19:53:06.861Z,18.28
2024-04-30T19:55:33.805Z,18.32
2024-04-30T19:58:00.681Z,18.29
2024-04-30T20:00:27.621Z,18.17
2024-04-30T20:02:54.614Z,18.05
2024-04-30T20:05:21.494Z,18.01
2024-04-30T20:07:48.377Z,17.92
2024-04-30T20:10:15.296Z,17.86
2024-04-30T20:12:42.200Z,17.88
2024-04-30T20:15:09.282Z,17.84
2024-04-30T20:17:36.174Z,17.79
2024-04-30T20:20:03.325Z,17.78
2024-04-30T20:22:30.185Z,17.73
2024-04-30T20:24:57.218Z,17.62
2024-04-30T20:27:24.139Z,17.58
2024-04-30T20:29:51.088Z,17.57
2024-04-30T20:32:18.014Z,17.58
2024-04-30T20:34:45.192Z,17.52
2024-04-30T20:37:12.107Z,17.58
2024-04-30T20:39:38.963Z,17.64
2024-04-30T20:42:05.867Z,17.71
2024-04-30T20:44:32.748Z,17.61
2024-04-30T20:46:59.594Z,17.47
2024-04-30T20:49:26.580Z,17.43
2024-04-30T20:51:53.596Z,17.40
2024-04-30T20:54:20.633Z,17.25
2024-04-30T20:56:47.506Z,17.04
2024-04-30T20:59:14.542Z,16.95
2024-04-30T21:01:41.675Z,16.92
2024-04-30T21:04:08.799Z,16.92
2024-04-30T21:06:39.243Z,16.93
2024-04-30T21:09:06.197Z,16.90
2024-04-30T21:11:33.417Z,16.81
2024-04-30T21:14:00.289Z,16.71
2024-04-30T21:16:27.233Z,16.60
2024-04-30T21:18:54.398Z,16.51
2024-04-30T21:21:21.473Z,16.43
2024-04-30T21:23:48.379Z,16.36
2024-04-30T21:26:15.259Z,16.31
2024-04-30T21:28:42.120Z,16.21
2024-04-30T21:31:09.021Z,16.13
2024-04-30T21:33:40.235Z,16.06
2024-04-30T21:36:08.186Z,15.99
2024-04-30T21:38:35.515Z,15.93
2024-04-30T21:41:02.398Z,15.99
2024-04-30T21:43:29.256Z,15.95
2024-04-30T21:45:56.298Z,15.93
2024-04-30T21:48:23.460Z,15.95
2024-04-30T21:50:50.397Z,15.95
2024-04-30T21:53:17.243Z,16.04
2024-04-30T21:55:44.135Z,16.01
2024-04-30T21:58:10.982Z,16.06
2024-04-30T22:00:38.110Z,15.94
2024-04-30T22:03:05.610Z,15.88
2024-04-30T22:05:33.753Z,15.85
2024-04-30T22:08:00.643Z,15.79
2024-04-30T22:10:27.507Z,15.73
2024-04-30T22:12:54.411Z,15.80
2024-04-30T22:15:21.481Z,15.74
2024-04-30T22:17:48.504Z,15.65
2024-04-30T22:20:15.644Z,15.59
2024-04-30T22:22:43.008Z,15.56
2024-04-30T22:25:09.920Z,15.60
2024-04-30T22:27:36.799Z,15.57
2024-04-30T22:30:13.121Z,15.49
2024-04-30T22:32:49.839Z,15.41
2024-04-30T22:35:16.832Z,15.37
2024-04-30T22:37:43.740Z,15.32
2024-04-30T22:40:10.710Z,15.25
2024-04-30T22:42:37.912Z,15.20
2024-04-30T22:45:05.162Z,15.19
2024-04-30T22:47:32.057Z,15.17
2024-04-30T22:49:59.034Z,15.10
2024-04-30T22:52:25.881Z,15.02
2024-04-30T22:54:52.897Z,14.95
2024-04-30T22:57:19.876Z,14.88
2024-04-30T22:59:46.760Z,14.86
2024-04-30T23:02:13.663Z,14.83
2024-04-30T23:04:40.568Z,14.83
2024-04-30T23:07:07.445Z,14.82
2024-04-30T23:09:34.400Z,14.81
2024-04-30T23:12:01.317Z,14.81
2024-04-30T23:14:28.299Z,14.77
2024-04-30T23:16:55.156Z,14.84
2024-04-30T23:19:22.066Z,14.85
2024-04-30T23:21:49.622Z,14.85
2024-04-30T23:24:16.552Z,14.84
2024-04-30T23:26:43.425Z,14.81
2024-04-30T23:29:10.297Z,14.80
2024-04-30T23:31:37.245Z,14.80
2024-04-30T23:34:04.275Z,14.88
2024-04-30T23:36:31.222Z,14.86
2024-04-30T23:38:58.124Z,14.87
2024-04-30T23:41:24.982Z,14.87
2024-04-30T23:43:51.922Z,14.88
2024-04-30T23:46:18.794Z,14.88
2024-04-30T23:48:45.747Z,14.89
2024-04-30T23:51:13.881Z,14.89
2024-04-30T23:53:42.840Z,14.85
2024-04-30T23:56:12.129Z,14.81
2024-04-30T23:58:39.177Z,14.79
